createdAt,value
2022-08-10T00:00:16.825Z,11.78
2022-08-10T00:03:37.730Z,11.78
2022-08-10T00:06:39.755Z,11.79
2022-08-10T00:09:50.801Z,11.80
2022-08-10T00:12:55.190Z,11.82
2022-08-10T00:15:57.606Z,11.84
2022-08-10T00:18:59.888Z,11.76
2022-08-10T00:22:01.761Z,11.59
2022-08-10T00:25:04.279Z,11.39
2022-08-10T00:28:06.263Z,11.29
2022-08-10T00:31:08.035Z,11.23
2022-08-10T00:34:09.893Z,11.15
2022-08-10T00:37:13.110Z,11.15
2022-08-10T00:40:15.042Z,11.07
2022-08-10T00:43:23.326Z,11.02
2022-08-10T00:46:26.363Z,10.97
2022-08-10T00:49:28.442Z,10.94
2022-08-10T00:52:30.578Z,10.91
2022-08-10T00:55:32.975Z,10.90
2022-08-10T00:58:54.681Z,10.86
2022-08-10T01:02:09.473Z,10.83
2022-08-10T01:05:14.615Z,10.73
2022-08-10T01:08:26.557Z,10.65
2022-08-10T01:12:38.476Z,10.62
2022-08-10T01:15:22.872Z,10.61
2022-08-10T01:18:37.682Z,10.66
2022-08-10T01:21:59.825Z,10.71
2022-08-10T01:25:24.805Z,10.79
2022-08-10T01:28:38.670Z,10.89
2022-08-10T01:31:46.137Z,10.91
2022-08-10T01:35:07.136Z,10.84
2022-08-10T01:38:36.702Z,10.78
2022-08-10T01:41:46.345Z,10.76
2022-08-10T01:45:02.266Z,10.80
2022-08-10T01:48:24.551Z,10.86
2022-08-10T01:51:35.586Z,10.88
2022-08-10T01:54:39.415Z,10.90
2022-08-10T01:57:42.481Z,10.88
2022-08-10T02:00:45.814Z,10.78
2022-08-10T02:04:04.007Z,10.65
2022-08-10T02:07:11.554Z,10.52
2022-08-10T02:10:15.318Z,10.44
2022-08-10T02:13:19.063Z,10.39
2022-08-10T02:16:21.822Z,10.30
2022-08-10T02:19:25.323Z,10.25
2022-08-10T02:22:38.037Z,10.18
2022-08-10T02:25:48.540Z,10.17
2022-08-10T02:28:52.175Z,10.15
2022-08-10T02:31:55.599Z,10.13
2022-08-10T02:34:59.472Z,10.17
2022-08-10T02:38:05.215Z,10.15
2022-08-10T02:45:00.994Z,10.12
2022-08-10T02:45:21.241Z,10.11
2022-08-10T02:48:32.743Z,10.11
2022-08-10T02:52:07.476Z,10.11
2022-08-10T02:55:19.748Z,10.06
2022-08-10T02:58:33.479Z,9.97
2022-08-10T03:01:40.889Z,9.85
2022-08-10T03:04:55.034Z,9.74
2022-08-10T03:08:06.614Z,9.65
2022-08-10T03:11:10.737Z,9.60
2022-08-10T03:14:14.364Z,9.58
2022-08-10T03:17:17.338Z,9.55
2022-08-10T03:20:35.902Z,9.56
2022-08-10T03:23:42.081Z,9.54
2022-08-10T03:26:44.282Z,9.49
2022-08-10T03:30:31.780Z,9.47
2022-08-10T03:33:08.950Z,9.46
2022-08-10T03:36:40.242Z,9.46
2022-08-10T03:39:32.885Z,9.45
2022-08-10T03:42:39.589Z,9.45
2022-08-10T03:45:49.420Z,9.45
2022-08-10T03:49:02.017Z,9.44
2022-08-10T03:52:06.415Z,9.45
2022-08-10T03:55:08.704Z,9.52
2022-08-10T03:58:11.195Z,9.60
2022-08-10T04:01:14.989Z,9.69
2022-08-10T04:04:22.877Z,9.79
2022-08-10T04:07:26.737Z,9.92
2022-08-10T04:10:29.439Z,10.03
2022-08-10T04:13:31.349Z,10.09
2022-08-10T04:16:33.065Z,10.15
2022-08-10T04:19:41.239Z,10.23
2022-08-10T04:22:44.971Z,10.33
2022-08-10T04:25:46.787Z,10.40
2022-08-10T04:28:49.322Z,10.47
2022-08-10T04:31:52.868Z,10.59
2022-08-10T04:34:55.904Z,10.81
2022-08-10T04:37:58.552Z,11.09
2022-08-10T04:41:01.473Z,11.40
2022-08-10T04:44:03.680Z,11.69
2022-08-10T04:47:05.749Z,11.98
2022-08-10T04:50:10.024Z,12.29
2022-08-10T04:53:11.822Z,12.61
2022-08-10T04:56:14.204Z,12.95
2022-08-10T04:59:16.254Z,13.27
2022-08-10T05:02:29.663Z,13.56
2022-08-10T05:05:39.786Z,13.86
2022-08-10T05:08:41.530Z,14.13
2022-08-10T05:11:44.248Z,14.39
2022-08-10T05:14:46.196Z,14.71
2022-08-10T05:18:06.077Z,15.03
2022-08-10T05:21:10.182Z,15.39
2022-08-10T05:24:11.824Z,15.67
2022-08-10T05:27:13.576Z,15.98
2022-08-10T05:30:21.274Z,16.29
2022-08-10T05:33:22.951Z,16.63
2022-08-10T05:36:24.921Z,16.94
2022-08-10T05:39:31.789Z,17.13
2022-08-10T05:42:34.750Z,17.37
2022-08-10T05:46:19.074Z,17.61
2022-08-10T05:49:01.560Z,18.04
2022-08-10T05:52:04.184Z,18.36
2022-08-10T05:55:06.694Z,18.80
2022-08-10T05:58:09.357Z,19.24
2022-08-10T06:01:13.855Z,19.72
2022-08-10T06:04:20.541Z,20.05
2022-08-10T06:07:27.320Z,20.39
2022-08-10T06:10:32.537Z,20.84
2022-08-10T06:14:12.646Z,21.24
2022-08-10T06:17:17.191Z,21.57
2022-08-10T06:20:19.024Z,21.35
2022-08-10T06:23:21.172Z,20.95
2022-08-10T06:26:22.970Z,20.85
2022-08-10T06:29:25.599Z,21.06
2022-08-10T06:32:28.702Z,21.40
2022-08-10T06:35:32.605Z,21.88
2022-08-10T06:38:35.390Z,21.89
2022-08-10T06:42:14.994Z,22.02
2022-08-10T06:45:12.171Z,22.33
2022-08-10T06:48:25.309Z,22.44
2022-08-10T06:51:30.986Z,22.51
2022-08-10T06:54:33.482Z,22.45
2022-08-10T06:57:38.103Z,22.24
2022-08-10T07:00:41.750Z,22.29
2022-08-10T07:03:47.613Z,22.37
2022-08-10T07:06:49.529Z,22.17
2022-08-10T07:09:52.125Z,22.18
2022-08-10T07:12:58.311Z,22.42
2022-08-10T07:16:00.808Z,22.49
2022-08-10T07:19:03.176Z,22.93
2022-08-10T07:22:05.917Z,23.43
2022-08-10T07:25:09.557Z,23.37
2022-08-10T07:28:11.831Z,23.42
2022-08-10T07:31:56.616Z,23.69
2022-08-10T07:34:41.226Z,24.28
2022-08-10T07:37:47.058Z,24.74
2022-08-10T07:40:50.395Z,25.21
2022-08-10T07:43:53.138Z,25.47
2022-08-10T07:46:57.383Z,25.99
2022-08-10T07:50:03.089Z,26.21
2022-08-10T07:53:09.051Z,26.15
2022-08-10T07:56:26.287Z,26.15
2022-08-10T07:59:42.438Z,25.89
2022-08-10T08:02:58.260Z,26.13
2022-08-10T08:06:02.948Z,26.32
2022-08-10T08:09:05.780Z,26.79
2022-08-10T08:12:08.396Z,27.26
2022-08-10T08:16:17.580Z,27.57
2022-08-10T08:18:37.119Z,28.02
2022-08-10T08:24:04.647Z,28.26
2022-08-10T08:25:07.191Z,28.70
2022-08-10T08:28:11.374Z,29.24
2022-08-10T08:31:14.955Z,29.76
2022-08-10T08:34:17.456Z,30.12
2022-08-10T08:38:31.390Z,30.15
2022-08-10T08:40:45.194Z,28.97
2022-08-10T08:43:54.466Z,27.68
2022-08-10T08:47:02.857Z,27.32
2022-08-10T08:50:47.230Z,27.98
2022-08-10T08:54:21.634Z,28.64
2022-08-10T08:57:49.672Z,29.05
2022-08-10T09:01:03.982Z,29.34
2022-08-10T09:04:38.064Z,29.70
2022-08-10T09:08:04.786Z,30.19
2022-08-10T09:11:17.184Z,30.57
2022-08-10T09:14:36.005Z,30.81
2022-08-10T09:18:05.810Z,31.20
2022-08-10T09:21:18.002Z,31.35
2022-08-10T09:24:28.818Z,31.39
2022-08-10T09:27:43.604Z,31.52
2022-08-10T09:31:18.844Z,31.74
2022-08-10T09:36:21.609Z,31.60
2022-08-10T09:38:14.577Z,32.18
2022-08-10T09:41:26.349Z,32.24
2022-08-10T09:44:34.153Z,31.36
2022-08-10T09:48:19.634Z,30.26
2022-08-10T09:51:48.042Z,30.29
2022-08-10T09:54:54.845Z,31.11
2022-08-10T09:58:35.978Z,31.73
2022-08-10T10:02:02.610Z,32.27
2022-08-10T10:05:25.534Z,32.47
2022-08-10T10:08:44.788Z,32.87
2022-08-10T10:12:18.914Z,32.75
2022-08-10T10:15:48.708Z,32.74
2022-08-10T10:19:28.929Z,33.20
2022-08-10T10:23:09.720Z,33.76
2022-08-10T10:26:49.112Z,33.69
2022-08-10T10:30:06.443Z,33.48
2022-08-10T10:33:21.061Z,33.64
2022-08-10T10:36:24.109Z,33.38
2022-08-10T10:39:26.463Z,32.02
2022-08-10T10:42:45.770Z,30.61
2022-08-10T10:46:29.280Z,30.15
2022-08-10T10:49:48.880Z,30.47
2022-08-10T10:53:10.163Z,31.06
2022-08-10T10:56:37.077Z,31.64
2022-08-10T11:00:06.184Z,32.12
2022-08-10T11:03:26.726Z,32.74
2022-08-10T11:07:01.665Z,33.34
2022-08-10T11:10:33.578Z,33.93
2022-08-10T11:14:26.651Z,34.46
2022-08-10T11:17:34.690Z,34.66
2022-08-10T11:20:38.943Z,34.87
2022-08-10T11:24:48.664Z,35.00
2022-08-10T11:27:22.605Z,34.51
2022-08-10T11:30:48.231Z,34.46
2022-08-10T11:34:49.377Z,34.76
2022-08-10T11:38:32.159Z,35.02
2022-08-10T11:42:08.929Z,35.40
2022-08-10T11:45:02.745Z,35.49
2022-08-10T11:48:53.953Z,35.52
2022-08-10T11:51:49.117Z,35.43
2022-08-10T11:54:54.077Z,35.38
2022-08-10T11:58:00.227Z,35.27
2022-08-10T12:01:07.662Z,34.30
2022-08-10T12:04:12.101Z,33.13
2022-08-10T12:10:01.876Z,32.22
2022-08-10T12:10:40.764Z,31.68
2022-08-10T12:14:19.731Z,31.96
2022-08-10T12:17:22.888Z,31.92
2022-08-10T12:20:37.116Z,31.06
2022-08-10T12:23:46.034Z,30.76
2022-08-10T12:27:08.165Z,31.15
2022-08-10T12:30:16.557Z,31.52
2022-08-10T12:33:25.461Z,31.58
2022-08-10T12:36:29.348Z,32.05
2022-08-10T12:39:38.023Z,32.17
2022-08-10T12:43:03.887Z,32.27
2022-08-10T12:46:28.784Z,32.84
2022-08-10T12:49:34.912Z,33.10
2022-08-10T12:52:59.121Z,33.02
2022-08-10T12:56:08.639Z,33.43
2022-08-10T12:59:11.455Z,33.38
2022-08-10T13:02:23.642Z,33.69
2022-08-10T13:05:26.523Z,34.09
2022-08-10T13:08:51.177Z,34.16
2022-08-10T13:12:44.677Z,34.07
2022-08-10T13:15:50.010Z,33.85
2022-08-10T13:18:53.592Z,33.10
2022-08-10T13:21:56.644Z,32.47
2022-08-10T13:25:01.785Z,32.43
2022-08-10T13:28:36.563Z,32.07
2022-08-10T13:32:09.514Z,32.42
2022-08-10T13:34:53.861Z,32.73
2022-08-10T13:37:58.208Z,32.87
2022-08-10T13:41:01.028Z,33.21
2022-08-10T13:44:02.874Z,33.65
2022-08-10T13:47:05.973Z,33.65
2022-08-10T13:50:13.299Z,32.39
2022-08-10T13:53:18.253Z,31.23
2022-08-10T13:56:21.396Z,30.54
2022-08-10T14:00:34.568Z,31.07
2022-08-10T14:03:06.461Z,31.26
2022-08-10T14:06:13.017Z,30.41
2022-08-10T14:09:15.982Z,29.73
2022-08-10T14:12:18.121Z,29.15
2022-08-10T14:15:31.049Z,28.64
2022-08-10T14:18:36.853Z,28.17
2022-08-10T14:21:42.327Z,27.77
2022-08-10T14:24:44.118Z,27.36
2022-08-10T14:28:03.712Z,27.10
2022-08-10T14:31:21.868Z,26.87
2022-08-10T14:36:16.801Z,26.64
2022-08-10T14:37:55.486Z,26.50
2022-08-10T14:40:59.834Z,26.36
2022-08-10T14:44:07.053Z,27.37
2022-08-10T14:47:51.364Z,28.82
2022-08-10T14:50:33.555Z,29.73
2022-08-10T14:53:37.735Z,30.20
2022-08-10T14:56:39.639Z,31.02
2022-08-10T15:00:24.730Z,31.87
2022-08-10T15:03:11.097Z,32.59
2022-08-10T15:06:30.992Z,32.93
2022-08-10T15:10:02.183Z,32.40
2022-08-10T15:13:07.392Z,32.37
2022-08-10T15:16:31.728Z,31.43
2022-08-10T15:20:02.380Z,30.39
2022-08-10T15:23:06.784Z,29.15
2022-08-10T15:26:11.374Z,28.22
2022-08-10T15:29:23.303Z,27.48
2022-08-10T15:32:53.016Z,26.79
2022-08-10T15:36:14.012Z,26.23
2022-08-10T15:40:21.766Z,25.78
2022-08-10T15:42:42.076Z,25.50
2022-08-10T15:45:57.440Z,25.36
2022-08-10T15:49:02.216Z,25.42
2022-08-10T15:52:09.290Z,25.90
2022-08-10T15:55:43.844Z,26.38
2022-08-10T15:58:50.704Z,26.71
2022-08-10T16:02:13.373Z,26.94
2022-08-10T16:05:19.198Z,27.13
2022-08-10T16:08:56.208Z,27.25
2022-08-10T16:12:15.103Z,27.26
2022-08-10T16:15:18.708Z,27.34
2022-08-10T16:18:25.641Z,27.36
2022-08-10T16:21:28.689Z,27.04
2022-08-10T16:24:34.707Z,26.64
2022-08-10T16:27:38.377Z,26.52
2022-08-10T16:30:54.342Z,26.58
2022-08-10T16:34:00.606Z,26.65
2022-08-10T16:37:10.546Z,26.64
2022-08-10T16:40:13.595Z,26.58
2022-08-10T16:43:17.371Z,26.54
2022-08-10T16:46:26.526Z,26.47
2022-08-10T16:49:30.760Z,26.38
2022-08-10T16:52:34.374Z,26.31
2022-08-10T16:55:48.472Z,26.20
2022-08-10T16:58:55.563Z,25.99
2022-08-10T17:01:58.862Z,25.78
2022-08-10T17:05:01.027Z,25.58
2022-08-10T17:08:06.437Z,25.43
2022-08-10T17:11:08.322Z,25.31
2022-08-10T17:14:16.269Z,25.22
2022-08-10T17:17:22.303Z,25.14
2022-08-10T17:20:30.310Z,25.09
2022-08-10T17:23:35.905Z,25.55
2022-08-10T17:26:38.503Z,26.42
2022-08-10T17:29:57.519Z,27.03
2022-08-10T17:33:07.113Z,27.29
2022-08-10T17:36:08.950Z,26.69
2022-08-10T17:39:12.115Z,25.97
2022-08-10T17:42:20.853Z,25.31
2022-08-10T17:45:48.421Z,24.74
2022-08-10T17:48:52.447Z,24.22
2022-08-10T17:51:56.718Z,23.73
2022-08-10T17:55:04.600Z,23.36
2022-08-10T17:58:17.785Z,22.98
2022-08-10T18:01:42.075Z,22.61
2022-08-10T18:04:49.417Z,22.27
2022-08-10T18:07:53.710Z,21.99
2022-08-10T18:10:57.379Z,21.71
2022-08-10T18:14:06.055Z,21.49
2022-08-10T18:17:39.433Z,21.28
2022-08-10T18:20:42.806Z,21.00
2022-08-10T18:23:52.482Z,20.83
2022-08-10T18:26:55.722Z,20.72
2022-08-10T18:30:02.642Z,20.65
2022-08-10T18:33:09.537Z,20.59
2022-08-10T18:36:12.403Z,20.53
2022-08-10T18:39:15.344Z,20.45
2022-08-10T18:42:20.277Z,20.39
2022-08-10T18:45:26.001Z,20.31
2022-08-10T18:48:37.634Z,20.25
2022-08-10T18:51:46.870Z,20.20
2022-08-10T18:54:51.593Z,20.15
2022-08-10T18:57:56.498Z,20.11
2022-08-10T19:01:15.634Z,20.08
2022-08-10T19:04:52.086Z,20.01
2022-08-10T19:08:29.961Z,19.95
2022-08-10T19:11:48.671Z,19.88
2022-08-10T19:15:11.129Z,19.80
2022-08-10T19:18:30.940Z,19.71
2022-08-10T19:21:45.853Z,19.62
2022-08-10T19:25:00.190Z,19.53
2022-08-10T19:28:16.932Z,19.43
2022-08-10T19:31:41.847Z,19.33
2022-08-10T19:35:02.291Z,19.25
2022-08-10T19:38:16.822Z,19.16
2022-08-10T19:41:41.938Z,19.08
2022-08-10T19:44:55.801Z,19.01
2022-08-10T19:48:06.151Z,18.93
2022-08-10T19:51:28.213Z,18.84
2022-08-10T19:54:59.939Z,18.75
2022-08-10T19:58:26.898Z,18.65
2022-08-10T20:01:55.371Z,18.56
2022-08-10T20:05:07.197Z,18.49
2022-08-10T20:08:28.147Z,18.39
2022-08-10T20:11:52.577Z,18.32
2022-08-10T20:15:10.317Z,18.24
2022-08-10T20:18:21.619Z,18.14
2022-08-10T20:21:30.207Z,18.04
2022-08-10T20:24:41.664Z,17.94
2022-08-10T20:28:19.932Z,17.86
2022-08-10T20:31:29.627Z,17.74
2022-08-10T20:34:51.701Z,17.64
2022-08-10T20:38:11.203Z,17.57
2022-08-10T20:41:28.335Z,17.52
2022-08-10T20:45:04.493Z,17.39
2022-08-10T20:48:13.774Z,17.30
2022-08-10T20:51:21.244Z,17.24
2022-08-10T20:54:27.646Z,17.21
2022-08-10T20:58:03.878Z,17.15
2022-08-10T21:01:13.581Z,17.07
2022-08-10T21:04:41.506Z,16.94
2022-08-10T21:08:05.166Z,16.79
2022-08-10T21:11:14.577Z,16.65
2022-08-10T21:14:22.501Z,16.49
2022-08-10T21:17:58.445Z,16.37
2022-08-10T21:21:41.842Z,16.35
2022-08-10T21:24:53.409Z,16.40
2022-08-10T21:28:05.733Z,16.44
2022-08-10T21:31:10.448Z,16.44
2022-08-10T21:34:39.572Z,16.44
2022-08-10T21:38:08.260Z,16.43
2022-08-10T21:41:57.332Z,16.44
2022-08-10T21:45:59.339Z,16.43
2022-08-10T21:49:53.110Z,16.42
2022-08-10T21:53:22.636Z,16.39
2022-08-10T21:57:13.093Z,16.38
2022-08-10T22:04:13.732Z,16.31
2022-08-10T22:07:40.889Z,16.23
2022-08-10T22:11:10.921Z,16.08
2022-08-10T22:14:33.541Z,15.97
2022-08-10T22:18:00.768Z,15.82
2022-08-10T22:21:49.984Z,15.72
2022-08-10T22:25:23.063Z,15.64
2022-08-10T22:28:43.688Z,15.60
2022-08-10T22:32:09.485Z,15.54
2022-08-10T22:35:36.767Z,15.42
2022-08-10T22:39:13.870Z,15.31
2022-08-10T22:42:59.407Z,15.13
2022-08-10T22:46:42.825Z,15.00
2022-08-10T22:49:44.672Z,14.90
2022-08-10T22:53:02.055Z,14.79
2022-08-10T22:56:24.796Z,14.68
2022-08-10T22:59:29.192Z,14.61
2022-08-10T23:02:33.978Z,14.54
2022-08-10T23:05:39.475Z,14.46
2022-08-10T23:08:43.538Z,14.44
2022-08-10T23:11:47.515Z,14.47
2022-08-10T23:14:59.007Z,14.49
2022-08-10T23:18:23.161Z,14.47
2022-08-10T23:21:47.693Z,14.42
2022-08-10T23:25:01.270Z,14.38
2022-08-10T23:28:12.640Z,14.30
2022-08-10T23:32:01.465Z,14.17
2022-08-10T23:34:43.575Z,14.10
2022-08-10T23:37:45.852Z,13.89
2022-08-10T23:40:51.738Z,13.75
2022-08-10T23:44:04.123Z,13.74
2022-08-10T23:47:07.106Z,13.74
2022-08-10T23:50:11.412Z,13.71
2022-08-10T23:53:13.920Z,13.63
2022-08-10T23:56:18.644Z,13.51
2022-08-10T23:59:22.921Z,13.45
